sensor_id;sensor_type;location;lat;lon;timestamp;P1;durP1;ratioP1;P2;durP2;ratioP2
7203;SDS011;3643;52.460;13.322;2023-05-07T00:01:47;16.03;;;12.20;;
7203;SDS011;3643;52.460;13.322;2023-05-07T00:04:17;16.73;;;13.30;;
7203;SDS011;3643;52.460;13.322;2023-05-07T00:06:46;16.60;;;13.33;;
7203;SDS011;3643;52.460;13.322;2023-05-07T00:09:15;15.37;;;12.87;;
7203;SDS011;3643;52.460;13.322;2023-05-07T00:11:44;16.83;;;12.67;;
7203;SDS011;3643;52.460;13.322;2023-05-07T00:14:12;16.30;;;12.30;;
7203;SDS011;3643;52.460;13.322;2023-05-07T00:16:41;16.27;;;12.57;;
7203;SDS011;3643;52.460;13.322;2023-05-07T00:19:10;18.57;;;13.17;;
7203;SDS011;3643;52.460;13.322;2023-05-07T00:21:40;18.73;;;12.47;;
7203;SDS011;3643;52.460;13.322;2023-05-07T00:24:08;15.17;;;11.80;;
7203;SDS011;3643;52.460;13.322;2023-05-07T00:26:36;13.73;;;11.37;;
7203;SDS011;3643;52.460;13.322;2023-05-07T00:29:05;15.50;;;11.80;;
7203;SDS011;3643;52.460;13.322;2023-05-07T00:31:33;19.77;;;12.30;;
7203;SDS011;3643;52.460;13.322;2023-05-07T00:34:02;16.00;;;11.27;;
7203;SDS011;3643;52.460;13.322;2023-05-07T00:36:30;15.07;;;10.77;;
7203;SDS011;3643;52.460;13.322;2023-05-07T00:39:00;15.00;;;10.70;;
7203;SDS011;3643;52.460;13.322;2023-05-07T00:41:30;15.27;;;10.97;;
7203;SDS011;3643;52.460;13.322;2023-05-07T00:43:58;14.17;;;10.63;;
7203;SDS011;3643;52.460;13.322;2023-05-07T00:46:29;14.07;;;10.03;;
7203;SDS011;3643;52.460;13.322;2023-05-07T00:49:00;13.50;;;10.03;;
7203;SDS011;3643;52.460;13.322;2023-05-07T00:51:29;12.73;;;9.80;;
7203;SDS011;3643;52.460;13.322;2023-05-07T00:53:59;15.47;;;11.03;;
7203;SDS011;3643;52.460;13.322;2023-05-07T00:56:29;11.40;;;9.87;;
7203;SDS011;3643;52.460;13.322;2023-05-07T00:59:00;12.97;;;8.87;;
7203;SDS011;3643;52.460;13.322;2023-05-07T01:01:29;11.00;;;9.33;;
7203;SDS011;3643;52.460;13.322;2023-05-07T01:03:59;14.13;;;9.23;;
7203;SDS011;3643;52.460;13.322;2023-05-07T01:06:28;10.40;;;8.93;;
7203;SDS011;3643;52.460;13.322;2023-05-07T01:09:00;10.87;;;8.63;;
7203;SDS011;3643;52.460;13.322;2023-05-07T01:11:31;11.57;;;9.07;;
7203;SDS011;3643;52.460;13.322;2023-05-07T01:13:59;12.03;;;9.47;;
7203;SDS011;3643;52.460;13.322;2023-05-07T01:16:28;11.13;;;9.33;;
7203;SDS011;3643;52.460;13.322;2023-05-07T01:18:57;14.67;;;9.83;;
7203;SDS011;3643;52.460;13.322;2023-05-07T01:21:26;16.07;;;10.77;;
7203;SDS011;3643;52.460;13.322;2023-05-07T01:23:59;14.80;;;10.43;;
7203;SDS011;3643;52.460;13.322;2023-05-07T01:26:28;16.13;;;10.30;;
7203;SDS011;3643;52.460;13.322;2023-05-07T01:28:56;16.33;;;11.03;;
7203;SDS011;3643;52.460;13.322;2023-05-07T01:31:25;14.13;;;10.83;;
7203;SDS011;3643;52.460;13.322;2023-05-07T01:33:54;13.03;;;10.83;;
7203;SDS011;3643;52.460;13.322;2023-05-07T01:36:23;14.07;;;10.70;;
7203;SDS011;3643;52.460;13.322;2023-05-07T01:38:53;15.87;;;10.60;;
7203;SDS011;3643;52.460;13.322;2023-05-07T01:41:26;14.90;;;10.37;;
7203;SDS011;3643;52.460;13.322;2023-05-07T01:43:54;13.23;;;10.43;;
7203;SDS011;3643;52.460;13.322;2023-05-07T01:46:24;14.37;;;10.57;;
7203;SDS011;3643;52.460;13.322;2023-05-07T01:48:54;13.90;;;9.47;;
7203;SDS011;3643;52.460;13.322;2023-05-07T01:51:22;16.40;;;11.27;;
7203;SDS011;3643;52.460;13.322;2023-05-07T01:53:52;12.80;;;10.53;;
7203;SDS011;3643;52.460;13.322;2023-05-07T01:56:21;15.73;;;11.00;;
7203;SDS011;3643;52.460;13.322;2023-05-07T01:58:51;12.70;;;10.33;;
7203;SDS011;3643;52.460;13.322;2023-05-07T02:01:19;14.07;;;9.37;;
7203;SDS011;3643;52.460;13.322;2023-05-07T02:03:48;13.50;;;9.70;;
7203;SDS011;3643;52.460;13.322;2023-05-07T02:06:16;13.27;;;10.30;;
7203;SDS011;3643;52.460;13.322;2023-05-07T02:08:46;13.93;;;10.27;;
7203;SDS011;3643;52.460;13.322;2023-05-07T02:11:14;12.83;;;10.07;;
7203;SDS011;3643;52.460;13.322;2023-05-07T02:13:43;11.70;;;9.53;;
7203;SDS011;3643;52.460;13.322;2023-05-07T02:16:13;12.07;;;9.57;;
7203;SDS011;3643;52.460;13.322;2023-05-07T02:18:42;14.53;;;11.07;;
7203;SDS011;3643;52.460;13.322;2023-05-07T02:21:10;12.90;;;10.20;;
7203;SDS011;3643;52.460;13.322;2023-05-07T02:23:39;13.40;;;10.17;;
7203;SDS011;3643;52.460;13.322;2023-05-07T02:26:07;11.17;;;9.47;;
7203;SDS011;3643;52.460;13.322;2023-05-07T02:28:35;12.20;;;9.97;;
7203;SDS011;3643;52.460;13.322;2023-05-07T02:31:04;15.17;;;10.23;;
7203;SDS011;3643;52.460;13.322;2023-05-07T02:33:34;12.63;;;9.93;;
7203;SDS011;3643;52.460;13.322;2023-05-07T02:36:06;11.20;;;9.57;;
7203;SDS011;3643;52.460;13.322;2023-05-07T02:38:35;11.67;;;9.47;;
7203;SDS011;3643;52.460;13.322;2023-05-07T02:41:04;15.33;;;10.37;;
7203;SDS011;3643;52.460;13.322;2023-05-07T02:43:33;12.23;;;9.43;;
7203;SDS011;3643;52.460;13.322;2023-05-07T02:46:02;14.03;;;10.13;;
7203;SDS011;3643;52.460;13.322;2023-05-07T02:48:31;15.70;;;10.03;;
7203;SDS011;3643;52.460;13.322;2023-05-07T02:51:01;13.00;;;9.87;;
7203;SDS011;3643;52.460;13.322;2023-05-07T02:53:30;12.60;;;10.00;;
7203;SDS011;3643;52.460;13.322;2023-05-07T02:55:59;15.13;;;10.53;;
7203;SDS011;3643;52.460;13.322;2023-05-07T02:58:28;15.27;;;11.50;;
7203;SDS011;3643;52.460;13.322;2023-05-07T03:00:57;16.90;;;11.60;;
7203;SDS011;3643;52.460;13.322;2023-05-07T03:03:26;16.07;;;11.27;;
7203;SDS011;3643;52.460;13.322;2023-05-07T03:05:55;15.20;;;12.33;;
7203;SDS011;3643;52.460;13.322;2023-05-07T03:08:25;14.80;;;12.07;;
7203;SDS011;3643;52.460;13.322;2023-05-07T03:10:53;19.60;;;13.67;;
7203;SDS011;3643;52.460;13.322;2023-05-07T03:13:22;16.33;;;12.43;;
7203;SDS011;3643;52.460;13.322;2023-05-07T03:15:50;14.27;;;11.37;;
7203;SDS011;3643;52.460;13.322;2023-05-07T03:18:18;15.83;;;11.63;;
7203;SDS011;3643;52.460;13.322;2023-05-07T03:20:47;16.50;;;10.20;;
7203;SDS011;3643;52.460;13.322;2023-05-07T03:23:16;15.03;;;10.80;;
7203;SDS011;3643;52.460;13.322;2023-05-07T03:25:46;13.70;;;9.90;;
7203;SDS011;3643;52.460;13.322;2023-05-07T03:28:15;14.30;;;10.83;;
7203;SDS011;3643;52.460;13.322;2023-05-07T03:30:44;13.57;;;9.93;;
7203;SDS011;3643;52.460;13.322;2023-05-07T03:33:13;12.60;;;10.17;;
7203;SDS011;3643;52.460;13.322;2023-05-07T03:35:42;12.63;;;9.90;;
7203;SDS011;3643;52.460;13.322;2023-05-07T03:38:10;11.03;;;9.03;;
7203;SDS011;3643;52.460;13.322;2023-05-07T03:40:39;12.97;;;9.60;;
7203;SDS011;3643;52.460;13.322;2023-05-07T03:43:09;11.73;;;9.50;;
7203;SDS011;3643;52.460;13.322;2023-05-07T03:45:37;10.60;;;8.80;;
7203;SDS011;3643;52.460;13.322;2023-05-07T03:48:06;13.07;;;8.90;;
7203;SDS011;3643;52.460;13.322;2023-05-07T03:50:35;11.80;;;9.10;;
7203;SDS011;3643;52.460;13.322;2023-05-07T03:53:04;17.27;;;9.60;;
7203;SDS011;3643;52.460;13.322;2023-05-07T03:55:33;12.00;;;10.00;;
7203;SDS011;3643;52.460;13.322;2023-05-07T03:58:02;13.30;;;8.97;;
7203;SDS011;3643;52.460;13.322;2023-05-07T04:00:32;11.93;;;9.57;;
7203;SDS011;3643;52.460;13.322;2023-05-07T04:03:04;11.60;;;9.80;;
7203;SDS011;3643;52.460;13.322;2023-05-07T04:05:33;11.70;;;9.77;;
7203;SDS011;3643;52.460;13.322;2023-05-07T04:08:02;10.57;;;8.93;;
7203;SDS011;3643;52.460;13.322;2023-05-07T04:10:30;16.47;;;9.77;;
7203;SDS011;3643;52.460;13.322;2023-05-07T04:12:58;12.33;;;9.83;;
7203;SDS011;3643;52.460;13.322;2023-05-07T04:15:26;12.20;;;9.80;;
7203;SDS011;3643;52.460;13.322;2023-05-07T04:17:56;12.70;;;9.63;;
7203;SDS011;3643;52.460;13.322;2023-05-07T04:20:24;12.93;;;9.20;;
7203;SDS011;3643;52.460;13.322;2023-05-07T04:22:52;11.70;;;9.20;;
7203;SDS011;3643;52.460;13.322;2023-05-07T04:25:20;11.00;;;9.10;;
7203;SDS011;3643;52.460;13.322;2023-05-07T04:27:48;10.50;;;9.40;;
7203;SDS011;3643;52.460;13.322;2023-05-07T04:30:16;12.47;;;8.77;;
7203;SDS011;3643;52.460;13.322;2023-05-07T04:32:44;10.47;;;8.60;;
7203;SDS011;3643;52.460;13.322;2023-05-07T04:35:15;11.13;;;8.40;;
7203;SDS011;3643;52.460;13.322;2023-05-07T04:37:43;12.00;;;8.83;;
7203;SDS011;3643;52.460;13.322;2023-05-07T04:40:12;12.10;;;8.77;;
7203;SDS011;3643;52.460;13.322;2023-05-07T04:42:40;10.83;;;8.00;;
7203;SDS011;3643;52.460;13.322;2023-05-07T04:45:08;9.23;;;7.53;;
7203;SDS011;3643;52.460;13.322;2023-05-07T04:47:38;12.27;;;8.23;;
7203;SDS011;3643;52.460;13.322;2023-05-07T04:50:06;9.70;;;8.70;;
7203;SDS011;3643;52.460;13.322;2023-05-07T04:52:37;10.33;;;8.23;;
7203;SDS011;3643;52.460;13.322;2023-05-07T04:55:05;9.53;;;7.57;;
7203;SDS011;3643;52.460;13.322;2023-05-07T04:57:34;10.67;;;8.23;;
7203;SDS011;3643;52.460;13.322;2023-05-07T05:00:02;12.13;;;8.20;;
7203;SDS011;3643;52.460;13.322;2023-05-07T05:02:31;8.53;;;7.17;;
7203;SDS011;3643;52.460;13.322;2023-05-07T05:05:00;12.23;;;7.10;;
7203;SDS011;3643;52.460;13.322;2023-05-07T05:07:28;9.90;;;7.47;;
7203;SDS011;3643;52.460;13.322;2023-05-07T05:09:57;13.90;;;7.83;;
7203;SDS011;3643;52.460;13.322;2023-05-07T05:12:26;8.20;;;6.90;;
7203;SDS011;3643;52.460;13.322;2023-05-07T05:14:54;9.57;;;7.30;;
7203;SDS011;3643;52.460;13.322;2023-05-07T05:17:23;8.47;;;6.77;;
7203;SDS011;3643;52.460;13.322;2023-05-07T05:19:51;7.87;;;7.07;;
7203;SDS011;3643;52.460;13.322;2023-05-07T05:22:19;9.70;;;6.67;;
7203;SDS011;3643;52.460;13.322;2023-05-07T05:24:47;11.87;;;7.90;;
7203;SDS011;3643;52.460;13.322;2023-05-07T05:27:16;7.43;;;6.60;;
7203;SDS011;3643;52.460;13.322;2023-05-07T05:29:44;8.07;;;6.63;;
7203;SDS011;3643;52.460;13.322;2023-05-07T05:32:12;8.97;;;7.10;;
7203;SDS011;3643;52.460;13.322;2023-05-07T05:34:41;9.07;;;7.30;;
7203;SDS011;3643;52.460;13.322;2023-05-07T05:37:09;6.53;;;5.77;;
7203;SDS011;3643;52.460;13.322;2023-05-07T05:39:37;8.90;;;6.93;;
7203;SDS011;3643;52.460;13.322;2023-05-07T05:42:05;8.37;;;6.80;;
7203;SDS011;3643;52.460;13.322;2023-05-07T05:44:34;8.07;;;6.30;;
7203;SDS011;3643;52.460;13.322;2023-05-07T05:47:02;8.77;;;6.20;;
7203;SDS011;3643;52.460;13.322;2023-05-07T05:49:30;9.03;;;6.70;;
7203;SDS011;3643;52.460;13.322;2023-05-07T05:51:58;7.83;;;6.67;;
7203;SDS011;3643;52.460;13.322;2023-05-07T05:54:26;7.70;;;6.27;;
7203;SDS011;3643;52.460;13.322;2023-05-07T05:56:55;8.67;;;6.07;;
7203;SDS011;3643;52.460;13.322;2023-05-07T05:59:23;6.90;;;5.97;;
7203;SDS011;3643;52.460;13.322;2023-05-07T06:01:52;9.57;;;6.67;;
7203;SDS011;3643;52.460;13.322;2023-05-07T06:04:20;7.97;;;6.40;;
7203;SDS011;3643;52.460;13.322;2023-05-07T06:06:48;6.97;;;5.97;;
7203;SDS011;3643;52.460;13.322;2023-05-07T06:09:16;9.17;;;5.83;;
7203;SDS011;3643;52.460;13.322;2023-05-07T06:11:44;6.97;;;5.50;;
7203;SDS011;3643;52.460;13.322;2023-05-07T06:14:14;6.93;;;5.77;;
7203;SDS011;3643;52.460;13.322;2023-05-07T06:16:42;6.83;;;5.30;;
7203;SDS011;3643;52.460;13.322;2023-05-07T06:19:12;7.70;;;5.57;;
7203;SDS011;3643;52.460;13.322;2023-05-07T06:21:40;6.00;;;4.83;;
7203;SDS011;3643;52.460;13.322;2023-05-07T06:24:08;5.93;;;4.60;;
7203;SDS011;3643;52.460;13.322;2023-05-07T06:26:37;5.63;;;4.73;;
7203;SDS011;3643;52.460;13.322;2023-05-07T06:29:05;5.67;;;4.97;;
7203;SDS011;3643;52.460;13.322;2023-05-07T06:31:33;7.20;;;4.77;;
7203;SDS011;3643;52.460;13.322;2023-05-07T06:34:02;7.17;;;5.47;;
7203;SDS011;3643;52.460;13.322;2023-05-07T06:36:31;6.63;;;5.20;;
7203;SDS011;3643;52.460;13.322;2023-05-07T06:39:00;5.43;;;4.90;;
7203;SDS011;3643;52.460;13.322;2023-05-07T06:41:28;7.13;;;5.80;;
7203;SDS011;3643;52.460;13.322;2023-05-07T06:43:56;6.70;;;5.33;;
7203;SDS011;3643;52.460;13.322;2023-05-07T06:46:24;6.90;;;5.27;;
7203;SDS011;3643;52.460;13.322;2023-05-07T06:48:52;5.93;;;5.10;;
7203;SDS011;3643;52.460;13.322;2023-05-07T06:51:20;6.43;;;5.10;;
7203;SDS011;3643;52.460;13.322;2023-05-07T06:53:50;5.97;;;4.80;;
7203;SDS011;3643;52.460;13.322;2023-05-07T06:56:18;7.60;;;5.50;;
7203;SDS011;3643;52.460;13.322;2023-05-07T06:58:47;7.33;;;4.97;;
7203;SDS011;3643;52.460;13.322;2023-05-07T07:01:15;7.97;;;6.20;;
7203;SDS011;3643;52.460;13.322;2023-05-07T07:03:43;7.93;;;6.63;;
7203;SDS011;3643;52.460;13.322;2023-05-07T07:06:11;8.43;;;6.33;;
7203;SDS011;3643;52.460;13.322;2023-05-07T07:08:40;13.60;;;6.03;;
7203;SDS011;3643;52.460;13.322;2023-05-07T07:11:09;6.20;;;5.60;;
7203;SDS011;3643;52.460;13.322;2023-05-07T07:13:37;6.80;;;5.40;;
7203;SDS011;3643;52.460;13.322;2023-05-07T07:16:06;6.33;;;5.33;;
7203;SDS011;3643;52.460;13.322;2023-05-07T07:18:34;6.77;;;5.93;;
7203;SDS011;3643;52.460;13.322;2023-05-07T07:21:02;6.67;;;5.87;;
7203;SDS011;3643;52.460;13.322;2023-05-07T07:23:31;5.87;;;4.90;;
7203;SDS011;3643;52.460;13.322;2023-05-07T07:25:59;6.77;;;4.10;;
7203;SDS011;3643;52.460;13.322;2023-05-07T07:28:28;4.67;;;4.23;;
7203;SDS011;3643;52.460;13.322;2023-05-07T07:30:56;4.60;;;4.20;;
7203;SDS011;3643;52.460;13.322;2023-05-07T07:33:24;4.97;;;4.03;;
7203;SDS011;3643;52.460;13.322;2023-05-07T07:35:53;6.20;;;4.30;;
7203;SDS011;3643;52.460;13.322;2023-05-07T07:38:22;5.00;;;4.50;;
7203;SDS011;3643;52.460;13.322;2023-05-07T07:40:51;7.70;;;4.97;;
7203;SDS011;3643;52.460;13.322;2023-05-07T07:43:19;6.40;;;4.40;;
7203;SDS011;3643;52.460;13.322;2023-05-07T07:45:48;8.00;;;4.37;;
7203;SDS011;3643;52.460;13.322;2023-05-07T07:48:16;4.87;;;4.30;;
7203;SDS011;3643;52.460;13.322;2023-05-07T07:50:44;5.97;;;4.10;;
7203;SDS011;3643;52.460;13.322;2023-05-07T07:53:15;4.93;;;3.20;;
7203;SDS011;3643;52.460;13.322;2023-05-07T07:55:43;4.80;;;3.07;;
7203;SDS011;3643;52.460;13.322;2023-05-07T07:58:11;4.50;;;3.20;;
7203;SDS011;3643;52.460;13.322;2023-05-07T08:00:40;3.30;;;3.00;;
7203;SDS011;3643;52.460;13.322;2023-05-07T08:03:10;3.43;;;3.13;;
7203;SDS011;3643;52.460;13.322;2023-05-07T08:05:38;3.97;;;3.33;;
7203;SDS011;3643;52.460;13.322;2023-05-07T08:08:06;3.00;;;2.70;;
7203;SDS011;3643;52.460;13.322;2023-05-07T08:10:35;4.70;;;3.53;;
7203;SDS011;3643;52.460;13.322;2023-05-07T08:13:04;3.17;;;2.83;;
7203;SDS011;3643;52.460;13.322;2023-05-07T08:15:34;3.10;;;2.80;;
7203;SDS011;3643;52.460;13.322;2023-05-07T08:18:02;2.83;;;2.63;;
7203;SDS011;3643;52.460;13.322;2023-05-07T08:20:31;3.73;;;2.77;;
7203;SDS011;3643;52.460;13.322;2023-05-07T08:23:02;3.90;;;3.17;;
7203;SDS011;3643;52.460;13.322;2023-05-07T08:25:30;2.77;;;2.57;;
7203;SDS011;3643;52.460;13.322;2023-05-07T08:28:00;3.30;;;3.03;;
7203;SDS011;3643;52.460;13.322;2023-05-07T08:30:29;3.90;;;2.87;;
7203;SDS011;3643;52.460;13.322;2023-05-07T08:32:57;5.07;;;2.60;;
7203;SDS011;3643;52.460;13.322;2023-05-07T08:35:25;4.90;;;3.20;;
7203;SDS011;3643;52.460;13.322;2023-05-07T08:37:55;4.23;;;3.13;;
7203;SDS011;3643;52.460;13.322;2023-05-07T08:40:24;6.90;;;3.00;;
7203;SDS011;3643;52.460;13.322;2023-05-07T08:42:53;3.00;;;2.80;;
7203;SDS011;3643;52.460;13.322;2023-05-07T08:45:22;3.73;;;3.23;;
7203;SDS011;3643;52.460;13.322;2023-05-07T08:47:51;5.27;;;3.37;;
7203;SDS011;3643;52.460;13.322;2023-05-07T08:50:23;3.67;;;3.20;;
7203;SDS011;3643;52.460;13.322;2023-05-07T08:52:51;3.93;;;2.90;;
7203;SDS011;3643;52.460;13.322;2023-05-07T08:55:21;3.73;;;3.30;;
7203;SDS011;3643;52.460;13.322;2023-05-07T08:57:50;5.23;;;2.97;;
7203;SDS011;3643;52.460;13.322;2023-05-07T09:00:19;3.40;;;2.70;;
7203;SDS011;3643;52.460;13.322;2023-05-07T09:02:47;2.73;;;2.53;;
7203;SDS011;3643;52.460;13.322;2023-05-07T09:05:15;3.03;;;2.60;;
7203;SDS011;3643;52.460;13.322;2023-05-07T09:07:43;3.80;;;2.70;;
7203;SDS011;3643;52.460;13.322;2023-05-07T09:10:12;3.20;;;2.57;;
7203;SDS011;3643;52.460;13.322;2023-05-07T09:12:42;2.70;;;2.47;;
7203;SDS011;3643;52.460;13.322;2023-05-07T09:15:10;3.43;;;2.43;;
7203;SDS011;3643;52.460;13.322;2023-05-07T09:17:39;6.03;;;2.63;;
7203;SDS011;3643;52.460;13.322;2023-05-07T09:20:08;3.00;;;2.57;;
7203;SDS011;3643;52.460;13.322;2023-05-07T09:22:37;3.60;;;2.47;;
7203;SDS011;3643;52.460;13.322;2023-05-07T09:25:06;4.70;;;2.50;;
7203;SDS011;3643;52.460;13.322;2023-05-07T09:27:35;4.87;;;2.93;;
7203;SDS011;3643;52.460;13.322;2023-05-07T09:30:06;5.10;;;2.57;;
7203;SDS011;3643;52.460;13.322;2023-05-07T09:32:35;2.47;;;2.27;;
7203;SDS011;3643;52.460;13.322;2023-05-07T09:35:05;3.10;;;2.27;;
7203;SDS011;3643;52.460;13.322;2023-05-07T09:37:42;3.23;;;2.23;;
7203;SDS011;3643;52.460;13.322;2023-05-07T09:40:19;2.63;;;2.40;;
7203;SDS011;3643;52.460;13.322;2023-05-07T09:42:48;3.77;;;2.50;;
7203;SDS011;3643;52.460;13.322;2023-05-07T09:45:22;3.50;;;2.07;;
7203;SDS011;3643;52.460;13.322;2023-05-07T09:47:53;9.50;;;2.63;;
7203;SDS011;3643;52.460;13.322;2023-05-07T09:50:24;2.40;;;2.20;;
7203;SDS011;3643;52.460;13.322;2023-05-07T09:52:54;2.63;;;2.43;;
7203;SDS011;3643;52.460;13.322;2023-05-07T09:55:24;3.00;;;2.70;;
7203;SDS011;3643;52.460;13.322;2023-05-07T09:57:53;4.00;;;2.47;;
7203;SDS011;3643;52.460;13.322;2023-05-07T10:00:23;2.57;;;2.37;;
7203;SDS011;3643;52.460;13.322;2023-05-07T10:02:53;3.73;;;2.17;;
7203;SDS011;3643;52.460;13.322;2023-05-07T10:05:25;3.83;;;2.70;;
7203;SDS011;3643;52.460;13.322;2023-05-07T10:07:53;2.77;;;2.47;;
7203;SDS011;3643;52.460;13.322;2023-05-07T10:10:23;2.30;;;2.10;;
7203;SDS011;3643;52.460;13.322;2023-05-07T10:12:52;3.30;;;2.33;;
7203;SDS011;3643;52.460;13.322;2023-05-07T10:15:23;3.93;;;2.60;;
7203;SDS011;3643;52.460;13.322;2023-05-07T10:17:51;2.57;;;2.33;;
7203;SDS011;3643;52.460;13.322;2023-05-07T10:20:22;2.77;;;2.43;;
7203;SDS011;3643;52.460;13.322;2023-05-07T10:22:50;2.90;;;2.30;;
7203;SDS011;3643;52.460;13.322;2023-05-07T10:25:21;3.93;;;2.33;;
7203;SDS011;3643;52.460;13.322;2023-05-07T10:27:54;2.80;;;2.60;;
7203;SDS011;3643;52.460;13.322;2023-05-07T10:30:30;4.30;;;2.43;;
7203;SDS011;3643;52.460;13.322;2023-05-07T10:33:06;4.27;;;2.10;;
7203;SDS011;3643;52.460;13.322;2023-05-07T10:35:38;2.93;;;2.33;;
7203;SDS011;3643;52.460;13.322;2023-05-07T10:38:09;1.97;;;1.77;;
7203;SDS011;3643;52.460;13.322;2023-05-07T10:40:37;2.30;;;2.10;;
7203;SDS011;3643;52.460;13.322;2023-05-07T10:43:05;2.43;;;1.93;;
7203;SDS011;3643;52.460;13.322;2023-05-07T10:45:37;2.40;;;2.20;;
7203;SDS011;3643;52.460;13.322;2023-05-07T10:48:06;1.97;;;1.83;;
7203;SDS011;3643;52.460;13.322;2023-05-07T10:51:18;2.83;;;1.93;;
7203;SDS011;3643;52.460;13.322;2023-05-07T10:53:46;1.80;;;1.70;;
7203;SDS011;3643;52.460;13.322;2023-05-07T10:56:24;2.97;;;2.00;;
7203;SDS011;3643;52.460;13.322;2023-05-07T10:58:54;2.53;;;1.77;;
7203;SDS011;3643;52.460;13.322;2023-05-07T11:04:19;2.50;;;1.90;;
7203;SDS011;3643;52.460;13.322;2023-05-07T11:07:24;3.27;;;1.80;;
7203;SDS011;3643;52.460;13.322;2023-05-07T11:10:01;2.00;;;1.80;;
7203;SDS011;3643;52.460;13.322;2023-05-07T11:15:40;1.90;;;1.80;;
7203;SDS011;3643;52.460;13.322;2023-05-07T11:18:13;2.40;;;1.67;;
7203;SDS011;3643;52.460;13.322;2023-05-07T11:20:45;1.90;;;1.70;;
7203;SDS011;3643;52.460;13.322;2023-05-07T11:26:27;1.70;;;1.60;;
7203;SDS011;3643;52.460;13.322;2023-05-07T11:28:57;2.53;;;1.50;;
7203;SDS011;3643;52.460;13.322;2023-05-07T11:31:27;2.80;;;2.20;;
7203;SDS011;3643;52.460;13.322;2023-05-07T11:33:57;2.57;;;1.73;;
7203;SDS011;3643;52.460;13.322;2023-05-07T11:36:30;2.17;;;1.63;;
7203;SDS011;3643;52.460;13.322;2023-05-07T11:38:59;1.90;;;1.77;;
7203;SDS011;3643;52.460;13.322;2023-05-07T11:41:34;3.47;;;2.10;;
7203;SDS011;3643;52.460;13.322;2023-05-07T11:44:03;3.77;;;2.00;;
7203;SDS011;3643;52.460;13.322;2023-05-07T11:46:31;3.97;;;2.10;;
7203;SDS011;3643;52.460;13.322;2023-05-07T11:49:02;2.03;;;1.90;;
7203;SDS011;3643;52.460;13.322;2023-05-07T11:51:30;2.03;;;1.83;;
7203;SDS011;3643;52.460;13.322;2023-05-07T11:53:58;2.27;;;2.03;;
7203;SDS011;3643;52.460;13.322;2023-05-07T11:56:27;4.37;;;2.17;;
7203;SDS011;3643;52.460;13.322;2023-05-07T11:58:55;3.10;;;2.00;;
7203;SDS011;3643;52.460;13.322;2023-05-07T12:01:23;2.20;;;2.10;;
7203;SDS011;3643;52.460;13.322;2023-05-07T12:03:51;3.63;;;1.80;;
7203;SDS011;3643;52.460;13.322;2023-05-07T12:06:21;1.67;;;1.43;;
7203;SDS011;3643;52.460;13.322;2023-05-07T12:08:49;2.53;;;1.77;;
7203;SDS011;3643;52.460;13.322;2023-05-07T12:11:21;2.83;;;1.90;;
7203;SDS011;3643;52.460;13.322;2023-05-07T12:13:51;2.27;;;1.80;;
7203;SDS011;3643;52.460;13.322;2023-05-07T12:16:24;2.00;;;1.80;;
7203;SDS011;3643;52.460;13.322;2023-05-07T12:18:53;1.63;;;1.53;;
7203;SDS011;3643;52.460;13.322;2023-05-07T12:21:23;3.93;;;1.97;;
7203;SDS011;3643;52.460;13.322;2023-05-07T12:23:51;1.70;;;1.60;;
7203;SDS011;3643;52.460;13.322;2023-05-07T12:26:20;1.77;;;1.50;;
7203;SDS011;3643;52.460;13.322;2023-05-07T12:28:48;1.93;;;1.60;;
7203;SDS011;3643;52.460;13.322;2023-05-07T12:31:16;1.70;;;1.60;;
7203;SDS011;3643;52.460;13.322;2023-05-07T12:33:45;2.43;;;1.57;;
7203;SDS011;3643;52.460;13.322;2023-05-07T12:36:13;1.93;;;1.70;;
7203;SDS011;3643;52.460;13.322;2023-05-07T12:38:43;1.70;;;1.50;;
7203;SDS011;3643;52.460;13.322;2023-05-07T12:41:11;2.10;;;1.80;;
7203;SDS011;3643;52.460;13.322;2023-05-07T12:43:39;2.47;;;1.70;;
7203;SDS011;3643;52.460;13.322;2023-05-07T12:46:11;2.43;;;1.43;;
7203;SDS011;3643;52.460;13.322;2023-05-07T12:48:43;2.50;;;1.80;;
7203;SDS011;3643;52.460;13.322;2023-05-07T12:51:12;1.80;;;1.70;;
7203;SDS011;3643;52.460;13.322;2023-05-07T12:53:43;1.80;;;1.50;;
7203;SDS011;3643;52.460;13.322;2023-05-07T12:56:11;1.53;;;1.40;;
7203;SDS011;3643;52.460;13.322;2023-05-07T12:58:43;4.27;;;1.70;;
7203;SDS011;3643;52.460;13.322;2023-05-07T13:01:11;1.80;;;1.70;;
7203;SDS011;3643;52.460;13.322;2023-05-07T13:03:41;1.60;;;1.50;;
7203;SDS011;3643;52.460;13.322;2023-05-07T13:06:16;2.63;;;1.50;;
7203;SDS011;3643;52.460;13.322;2023-05-07T13:08:46;3.07;;;1.90;;
7203;SDS011;3643;52.460;13.322;2023-05-07T13:11:14;1.63;;;1.53;;
7203;SDS011;3643;52.460;13.322;2023-05-07T13:13:42;3.90;;;1.53;;
7203;SDS011;3643;52.460;13.322;2023-05-07T13:16:10;3.23;;;1.73;;
7203;SDS011;3643;52.460;13.322;2023-05-07T13:18:39;2.27;;;1.60;;
7203;SDS011;3643;52.460;13.322;2023-05-07T13:21:10;1.63;;;1.53;;
7203;SDS011;3643;52.460;13.322;2023-05-07T13:23:39;1.60;;;1.50;;
7203;SDS011;3643;52.460;13.322;2023-05-07T13:26:09;1.60;;;1.50;;
7203;SDS011;3643;52.460;13.322;2023-05-07T13:28:51;1.80;;;1.70;;
7203;SDS011;3643;52.460;13.322;2023-05-07T13:31:19;1.93;;;1.83;;
7203;SDS011;3643;52.460;13.322;2023-05-07T13:33:47;3.13;;;1.53;;
7203;SDS011;3643;52.460;13.322;2023-05-07T13:36:16;1.60;;;1.50;;
7203;SDS011;3643;52.460;13.322;2023-05-07T13:38:44;1.40;;;1.30;;
7203;SDS011;3643;52.460;13.322;2023-05-07T13:41:14;3.23;;;1.40;;
7203;SDS011;3643;52.460;13.322;2023-05-07T13:43:42;2.00;;;1.80;;
7203;SDS011;3643;52.460;13.322;2023-05-07T13:46:10;1.50;;;1.40;;
7203;SDS011;3643;52.460;13.322;2023-05-07T13:48:39;2.97;;;1.83;;
7203;SDS011;3643;52.460;13.322;2023-05-07T13:51:07;2.10;;;2.00;;
7203;SDS011;3643;52.460;13.322;2023-05-07T13:53:35;2.00;;;1.90;;
7203;SDS011;3643;52.460;13.322;2023-05-07T13:56:04;1.80;;;1.50;;
7203;SDS011;3643;52.460;13.322;2023-05-07T13:58:34;2.63;;;1.57;;
7203;SDS011;3643;52.460;13.322;2023-05-07T14:01:13;1.63;;;1.53;;
7203;SDS011;3643;52.460;13.322;2023-05-07T14:03:42;3.50;;;1.57;;
7203;SDS011;3643;52.460;13.322;2023-05-07T14:06:10;1.53;;;1.43;;
7203;SDS011;3643;52.460;13.322;2023-05-07T14:08:38;1.60;;;1.50;;
7203;SDS011;3643;52.460;13.322;2023-05-07T14:11:06;3.10;;;1.27;;
7203;SDS011;3643;52.460;13.322;2023-05-07T14:13:36;2.13;;;2.03;;
7203;SDS011;3643;52.460;13.322;2023-05-07T14:16:04;2.77;;;1.80;;
7203;SDS011;3643;52.460;13.322;2023-05-07T14:18:33;1.80;;;1.70;;
7203;SDS011;3643;52.460;13.322;2023-05-07T14:21:04;1.97;;;1.67;;
7203;SDS011;3643;52.460;13.322;2023-05-07T14:23:33;2.10;;;1.80;;
7203;SDS011;3643;52.460;13.322;2023-05-07T14:26:02;2.47;;;1.77;;
7203;SDS011;3643;52.460;13.322;2023-05-07T14:28:30;2.50;;;1.70;;
7203;SDS011;3643;52.460;13.322;2023-05-07T14:31:00;2.00;;;1.70;;
7203;SDS011;3643;52.460;13.322;2023-05-07T14:33:29;2.30;;;1.57;;
7203;SDS011;3643;52.460;13.322;2023-05-07T14:35:57;1.97;;;1.53;;
7203;SDS011;3643;52.460;13.322;2023-05-07T14:38:26;2.43;;;1.70;;
7203;SDS011;3643;52.460;13.322;2023-05-07T14:40:54;1.60;;;1.50;;
7203;SDS011;3643;52.460;13.322;2023-05-07T14:43:22;1.90;;;1.80;;
7203;SDS011;3643;52.460;13.322;2023-05-07T14:45:50;5.30;;;2.17;;
7203;SDS011;3643;52.460;13.322;2023-05-07T14:48:20;3.03;;;1.70;;
7203;SDS011;3643;52.460;13.322;2023-05-07T14:50:48;1.60;;;1.50;;
7203;SDS011;3643;52.460;13.322;2023-05-07T14:53:17;1.57;;;1.47;;
7203;SDS011;3643;52.460;13.322;2023-05-07T14:55:45;1.90;;;1.70;;
7203;SDS011;3643;52.460;13.322;2023-05-07T14:58:13;2.23;;;1.57;;
7203;SDS011;3643;52.460;13.322;2023-05-07T15:00:41;1.90;;;1.73;;
7203;SDS011;3643;52.460;13.322;2023-05-07T15:03:09;1.80;;;1.70;;
7203;SDS011;3643;52.460;13.322;2023-05-07T15:05:41;1.90;;;1.60;;
7203;SDS011;3643;52.460;13.322;2023-05-07T15:08:09;1.97;;;1.87;;
7203;SDS011;3643;52.460;13.322;2023-05-07T15:10:37;2.40;;;2.17;;
7203;SDS011;3643;52.460;13.322;2023-05-07T15:13:08;5.27;;;1.73;;
7203;SDS011;3643;52.460;13.322;2023-05-07T15:15:41;1.93;;;1.80;;
7203;SDS011;3643;52.460;13.322;2023-05-07T15:18:10;1.77;;;1.67;;